sensor_id;sensor_type;location;lat;lon;timestamp;pressure;altitude;pressure_sealevel;temperature;humidity
57374;BME280;43964;53.890;25.340;2024-02-21T00:00:05;1023.7;;;4.4;63.9
57374;BME280;43964;53.890;25.340;2024-02-21T00:05:05;1023.8;;;4.5;63.9
57374;BME280;43964;53.890;25.340;2024-02-21T00:09:50;1023.8;;;4.5;63.9
57374;BME280;43964;53.890;25.340;2024-02-21T00:15:05;1023.8;;;4.5;63.8
57374;BME280;43964;53.890;25.340;2024-02-21T00:19:12;1023.8;;;4.5;63.8
57374;BME280;43964;53.890;25.340;2024-02-21T00:24:12;1023.8;;;4.5;63.9
57374;BME280;43964;53.890;25.340;2024-02-21T00:29:28;1023.8;;;4.4;64
57374;BME280;43964;53.890;25.340;2024-02-21T00:34:24;1023.8;;;4.4;64
57374;BME280;43964;53.890;25.340;2024-02-21T00:39:38;1023.7;;;4.4;64.1
57374;BME280;43964;53.890;25.340;2024-02-21T00:44:34;1023.7;;;4.4;64.1
57374;BME280;43964;53.890;25.340;2024-02-21T00:49:21;1023.7;;;4.4;64.1
57374;BME280;43964;53.890;25.340;2024-02-21T00:55:03;1023.6;;;4.5;64.1
57374;BME280;43964;53.890;25.340;2024-02-21T00:59:48;1023.6;;;4.5;64.1
57374;BME280;43964;53.890;25.340;2024-02-21T01:04:20;1023.6;;;4.5;64.2
57374;BME280;43964;53.890;25.340;2024-02-21T01:09:12;1023.6;;;4.5;64.1
57374;BME280;43964;53.890;25.340;2024-02-21T01:14:42;1023.6;;;4.5;64.2
57374;BME280;43964;53.890;25.340;2024-02-21T01:19:52;1023.6;;;4.5;64.3
57374;BME280;43964;53.890;25.340;2024-02-21T01:24:20;1023.6;;;4.5;64.4
57374;BME280;43964;53.890;25.340;2024-02-21T01:29:53;1023.6;;;4.5;64.4
57374;BME280;43964;53.890;25.340;2024-02-21T01:34:14;1023.6;;;4.5;64.5
57374;BME280;43964;53.890;25.340;2024-02-21T01:40:05;1023.6;;;4.4;64.6
57374;BME280;43964;53.890;25.340;2024-02-21T01:44:50;1023.6;;;4.4;64.6
57374;BME280;43964;53.890;25.340;2024-02-21T01:50:05;1023.6;;;4.4;64.8
57374;BME280;43964;53.890;25.340;2024-02-21T01:54:20;1023.6;;;4.4;64.8
57374;BME280;43964;53.890;25.340;2024-02-21T01:59:12;1023.6;;;4.4;64.9
57374;BME280;43964;53.890;25.340;2024-02-21T02:04:20;1023.6;;;4.3;64.8
57374;BME280;43964;53.890;25.340;2024-02-21T02:09:32;1023.6;;;4.4;65
57374;BME280;43964;53.890;25.340;2024-02-21T02:14:12;1023.6;;;4.4;65
57374;BME280;43964;53.890;25.340;2024-02-21T02:19:42;1023.6;;;4.3;64.9
57374;BME280;43964;53.890;25.340;2024-02-21T02:24:13;1023.6;;;4.3;65.2
57374;BME280;43964;53.890;25.340;2024-02-21T02:30:03;1023.6;;;4.4;65.3
57374;BME280;43964;53.890;25.340;2024-02-21T02:34:49;1023.6;;;4.4;65.3
57374;BME280;43964;53.890;25.340;2024-02-21T02:39:29;1023.6;;;4.4;65.4
57374;BME280;43964;53.890;25.340;2024-02-21T02:44:41;1023.5;;;4.4;65.3
57374;BME280;43964;53.890;25.340;2024-02-21T02:49:43;1023.5;;;4.4;65.4
57374;BME280;43964;53.890;25.340;2024-02-21T02:55:05;1023.6;;;4.5;65.5
57374;BME280;43964;53.890;25.340;2024-02-21T02:59:33;1023.6;;;4.5;65.5
57374;BME280;43964;53.890;25.340;2024-02-21T03:04:59;1023.6;;;4.5;65.5
57374;BME280;43964;53.890;25.340;2024-02-21T03:09:23;1023.6;;;4.6;65.5
57374;BME280;43964;53.890;25.340;2024-02-21T03:15:03;1023.6;;;4.6;65.6
57374;BME280;43964;53.890;25.340;2024-02-21T03:19:53;1023.6;;;4.6;65.6
57374;BME280;43964;53.890;25.340;2024-02-21T03:24:53;1023.7;;;4.6;65.6
57374;BME280;43964;53.890;25.340;2024-02-21T03:29:39;1023.7;;;4.5;65.6
57374;BME280;43964;53.890;25.340;2024-02-21T03:34:13;1023.6;;;4.5;65.8
57374;BME280;43964;53.890;25.340;2024-02-21T03:39:39;1023.7;;;4.5;65.8
57374;BME280;43964;53.890;25.340;2024-02-21T03:44:13;1023.7;;;4.6;65.7
57374;BME280;43964;53.890;25.340;2024-02-21T03:59:51;1023.6;;;4.5;65.8
57374;BME280;43964;53.890;25.340;2024-02-21T04:05:03;1023.6;;;4.6;65.9
57374;BME280;43964;53.890;25.340;2024-02-21T04:10:03;1023.6;;;4.5;65.7
57374;BME280;43964;53.890;25.340;2024-02-21T04:19:45;1023.6;;;4.5;65.7
57374;BME280;43964;53.890;25.340;2024-02-21T04:29:53;1023.6;;;4.5;66
57374;BME280;43964;53.890;25.340;2024-02-21T04:34:21;1023.7;;;4.6;66.1
57374;BME280;43964;53.890;25.340;2024-02-21T04:39:15;1023.7;;;4.6;66.1
57374;BME280;43964;53.890;25.340;2024-02-21T04:44:25;1023.7;;;4.7;66.1
57374;BME280;43964;53.890;25.340;2024-02-21T04:50:03;1023.6;;;4.8;66.1
57374;BME280;43964;53.890;25.340;2024-02-21T04:54:31;1023.6;;;4.8;66.1
57374;BME280;43964;53.890;25.340;2024-02-21T05:00:03;1023.6;;;4.8;65.9
57374;BME280;43964;53.890;25.340;2024-02-21T05:04:21;1023.6;;;4.8;65.9
57374;BME280;43964;53.890;25.340;2024-02-21T05:09:31;1023.6;;;4.8;66
57374;BME280;43964;53.890;25.340;2024-02-21T05:14:45;1023.6;;;4.7;66.1
57374;BME280;43964;53.890;25.340;2024-02-21T05:19:29;1023.6;;;4.8;66.2
57374;BME280;43964;53.890;25.340;2024-02-21T05:24:38;1023.6;;;4.8;66.2
57374;BME280;43964;53.890;25.340;2024-02-21T05:29:47;1023.6;;;4.8;66.3
57374;BME280;43964;53.890;25.340;2024-02-21T05:34:19;1023.6;;;4.8;66.1
57374;BME280;43964;53.890;25.340;2024-02-21T05:39:39;1023.6;;;4.7;66.1
57374;BME280;43964;53.890;25.340;2024-02-21T05:45:03;1023.7;;;4.6;66.3
57374;BME280;43964;53.890;25.340;2024-02-21T05:49:49;1023.7;;;4.6;66.3
57374;BME280;43964;53.890;25.340;2024-02-21T05:54:49;1023.7;;;4.6;66.3
57374;BME280;43964;53.890;25.340;2024-02-21T05:59:47;1023.7;;;4.6;66.1
57374;BME280;43964;53.890;25.340;2024-02-21T06:04:51;1023.7;;;4.6;66.1
57374;BME280;43964;53.890;25.340;2024-02-21T06:09:39;1023.7;;;4.7;66.1
57374;BME280;43964;53.890;25.340;2024-02-21T06:14:49;1023.7;;;4.7;66
57374;BME280;43964;53.890;25.340;2024-02-21T06:20:01;1023.7;;;4.7;65.9
57374;BME280;43964;53.890;25.340;2024-02-21T06:25:01;1023.8;;;4.7;65.8
57374;BME280;43964;53.890;25.340;2024-02-21T06:29:37;1023.8;;;4.7;65.8
57374;BME280;43964;53.890;25.340;2024-02-21T06:35:01;1023.8;;;4.8;65.6
57374;BME280;43964;53.890;25.340;2024-02-21T06:39:37;1023.8;;;4.8;65.6
57374;BME280;43964;53.890;25.340;2024-02-21T06:44:47;1023.8;;;4.8;65.5
57374;BME280;43964;53.890;25.340;2024-02-21T06:49:13;1023.8;;;4.9;65.4
57374;BME280;43964;53.890;25.340;2024-02-21T06:54:13;1023.8;;;5;65.2
57374;BME280;43964;53.890;25.340;2024-02-21T06:59:13;1023.8;;;5.2;65
57374;BME280;43964;53.890;25.340;2024-02-21T07:04:21;1023.7;;;5.3;64.9
57374;BME280;43964;53.890;25.340;2024-02-21T07:09:21;1023.7;;;5.5;64.5
57374;BME280;43964;53.890;25.340;2024-02-21T07:14:21;1023.7;;;5.5;64.4
57374;BME280;43964;53.890;25.340;2024-02-21T07:20:03;1023.7;;;5.6;64.2
57374;BME280;43964;53.890;25.340;2024-02-21T07:30:03;1023.7;;;5.7;64.2
57374;BME280;43964;53.890;25.340;2024-02-21T07:34:49;1023.7;;;5.7;64.2
57374;BME280;43964;53.890;25.340;2024-02-21T07:39:51;1023.7;;;6.1;63.6
57374;BME280;43964;53.890;25.340;2024-02-21T07:44:25;1023.7;;;6.6;63
57374;BME280;43964;53.890;25.340;2024-02-21T07:49:15;1023.7;;;6.8;62.2
57374;BME280;43964;53.890;25.340;2024-02-21T07:55:03;1023.7;;;6.9;62.2
57374;BME280;43964;53.890;25.340;2024-02-21T08:00:03;1023.7;;;6.6;62.2
57374;BME280;43964;53.890;25.340;2024-02-21T08:04:29;1023.7;;;6.6;62.2
57374;BME280;43964;53.890;25.340;2024-02-21T08:10:03;1023.7;;;6.6;61.8
57374;BME280;43964;53.890;25.340;2024-02-21T08:14:51;1023.7;;;6.6;61.8
57374;BME280;43964;53.890;25.340;2024-02-21T08:19:49;1023.7;;;6.7;61.7
57374;BME280;43964;53.890;25.340;2024-02-21T08:24:55;1023.7;;;6.4;61.9
57374;BME280;43964;53.890;25.340;2024-02-21T08:29:31;1023.7;;;6.4;61.9
57374;BME280;43964;53.890;25.340;2024-02-21T08:34:25;1023.6;;;6.6;61.8
57374;BME280;43964;53.890;25.340;2024-02-21T08:39:27;1023.6;;;6.5;61.7
57374;BME280;43964;53.890;25.340;2024-02-21T08:44:25;1023.6;;;6.5;61.7
57374;BME280;43964;53.890;25.340;2024-02-21T08:49:13;1023.6;;;6.4;61.5
57374;BME280;43964;53.890;25.340;2024-02-21T08:54:43;1023.6;;;6.4;61.4
57374;BME280;43964;53.890;25.340;2024-02-21T08:59:31;1023.6;;;6.2;61.4
57374;BME280;43964;53.890;25.340;2024-02-21T09:05:03;1023.6;;;6;61.6
57374;BME280;43964;53.890;25.340;2024-02-21T09:09:59;1023.6;;;6;61.6
57374;BME280;43964;53.890;25.340;2024-02-21T09:14:29;1023.6;;;6.1;61.5
57374;BME280;43964;53.890;25.340;2024-02-21T09:19:31;1023.6;;;6.1;61.6
57374;BME280;43964;53.890;25.340;2024-02-21T09:24:51;1023.7;;;6.1;61.5
57374;BME280;43964;53.890;25.340;2024-02-21T09:29:15;1023.7;;;6;61.7
57374;BME280;43964;53.890;25.340;2024-02-21T09:34:33;1023.7;;;5.8;62
57374;BME280;43964;53.890;25.340;2024-02-21T09:40:03;1023.6;;;5.8;62.1
57374;BME280;43964;53.890;25.340;2024-02-21T09:44:41;1023.6;;;5.8;62.1
57374;BME280;43964;53.890;25.340;2024-02-21T09:49:51;1023.6;;;6;62
57374;BME280;43964;53.890;25.340;2024-02-21T09:54:21;1023.6;;;6.2;61.9
57374;BME280;43964;53.890;25.340;2024-02-21T09:59:51;1023.7;;;6.4;61.7
57374;BME280;43964;53.890;25.340;2024-02-21T10:04:29;1023.6;;;6.7;61.6
57374;BME280;43964;53.890;25.340;2024-02-21T10:09:25;1023.6;;;7.1;61.3
57374;BME280;43964;53.890;25.340;2024-02-21T10:14:59;1023.6;;;7.3;61.2
57374;BME280;43964;53.890;25.340;2024-02-21T10:19:33;1023.5;;;7.3;61.1
57374;BME280;43964;53.890;25.340;2024-02-21T10:24:35;1023.5;;;7.2;61
57374;BME280;43964;53.890;25.340;2024-02-21T10:29:13;1023.4;;;7.2;61
57374;BME280;43964;53.890;25.340;2024-02-21T10:34:23;1023.4;;;7.2;60.9
57374;BME280;43964;53.890;25.340;2024-02-21T10:40:03;1023.4;;;7;61.2
57374;BME280;43964;53.890;25.340;2024-02-21T10:45:03;1023.4;;;6.9;61.3
57374;BME280;43964;53.890;25.340;2024-02-21T10:50:03;1023.4;;;6.8;61.5
57374;BME280;43964;53.890;25.340;2024-02-21T10:55:01;1023.4;;;6.8;61.5
57374;BME280;43964;53.890;25.340;2024-02-21T11:00:03;1023.2;;;6.8;61.6
57374;BME280;43964;53.890;25.340;2024-02-21T11:04:53;1023.2;;;6.8;61.6
57374;BME280;43964;53.890;25.340;2024-02-21T11:09:33;1023.2;;;6.7;61.8
57374;BME280;43964;53.890;25.340;2024-02-21T11:15:03;1023.1;;;6.5;62.1
57374;BME280;43964;53.890;25.340;2024-02-21T11:19:25;1023.1;;;6.5;62.1
57374;BME280;43964;53.890;25.340;2024-02-21T11:25:06;1022.9;;;6.5;62.2
57374;BME280;43964;53.890;25.340;2024-02-21T11:29:24;1022.9;;;6.5;62.2
57374;BME280;43964;53.890;25.340;2024-02-21T11:34:54;1022.9;;;6.9;62
57374;BME280;43964;53.890;25.340;2024-02-21T11:39:13;1022.9;;;7;62.2
57374;BME280;43964;53.890;25.340;2024-02-21T11:44:13;1022.8;;;7.2;62.2
57374;BME280;43964;53.890;25.340;2024-02-21T11:49:47;1022.8;;;7.4;62
57374;BME280;43964;53.890;25.340;2024-02-21T11:59:33;1022.6;;;7.4;62.3
57374;BME280;43964;53.890;25.340;2024-02-21T12:04:21;1022.6;;;7.5;61.9
57374;BME280;43964;53.890;25.340;2024-02-21T12:09:51;1022.6;;;7.5;62
57374;BME280;43964;53.890;25.340;2024-02-21T12:15:06;1022.5;;;7.5;62.2
57374;BME280;43964;53.890;25.340;2024-02-21T12:20:03;1022.5;;;7.5;62.3
57374;BME280;43964;53.890;25.340;2024-02-21T12:24:33;1022.5;;;7.5;62.3
57374;BME280;43964;53.890;25.340;2024-02-21T12:29:43;1022.5;;;7.5;62.2
57374;BME280;43964;53.890;25.340;2024-02-21T12:35:01;1022.4;;;7.5;62.2
57374;BME280;43964;53.890;25.340;2024-02-21T12:39:51;1022.4;;;7.4;62.4
57374;BME280;43964;53.890;25.340;2024-02-21T12:44:43;1022.4;;;7.4;62.4
57374;BME280;43964;53.890;25.340;2024-02-21T12:49:43;1022.3;;;7.3;62.4
57374;BME280;43964;53.890;25.340;2024-02-21T12:54:33;1022.3;;;7.3;62.5
57374;BME280;43964;53.890;25.340;2024-02-21T13:00:03;1022.2;;;7.4;62.5
57374;BME280;43964;53.890;25.340;2024-02-21T13:04:41;1022.2;;;7.4;62.5
57374;BME280;43964;53.890;25.340;2024-02-21T13:10:03;1022.1;;;7.5;62.5
57374;BME280;43964;53.890;25.340;2024-02-21T13:14:49;1022.1;;;7.5;62.5
57374;BME280;43964;53.890;25.340;2024-02-21T13:19:33;1022.1;;;7.8;62.3
57374;BME280;43964;53.890;25.340;2024-02-21T13:24:13;1021.9;;;8;61.9
57374;BME280;43964;53.890;25.340;2024-02-21T13:29:13;1021.9;;;8.3;61.7
57374;BME280;43964;53.890;25.340;2024-02-21T13:34:13;1021.9;;;8.5;61.3
57374;BME280;43964;53.890;25.340;2024-02-21T13:39:13;1021.9;;;8.4;61.4
57374;BME280;43964;53.890;25.340;2024-02-21T13:44:13;1021.8;;;8.3;61.6
57374;BME280;43964;53.890;25.340;2024-02-21T13:49:49;1021.8;;;8;61.7
57374;BME280;43964;53.890;25.340;2024-02-21T13:54:55;1021.7;;;7.9;61.8
57374;BME280;43964;53.890;25.340;2024-02-21T13:59:29;1021.6;;;7.9;61.9
57374;BME280;43964;53.890;25.340;2024-02-21T14:05:05;1021.6;;;7.7;62
57374;BME280;43964;53.890;25.340;2024-02-21T14:09:51;1021.6;;;7.7;62
57374;BME280;43964;53.890;25.340;2024-02-21T14:15:05;1021.5;;;7.6;62.2
57374;BME280;43964;53.890;25.340;2024-02-21T14:19:25;1021.5;;;7.6;62.2
57374;BME280;43964;53.890;25.340;2024-02-21T14:24:53;1021.5;;;7.5;62.4
57374;BME280;43964;53.890;25.340;2024-02-21T14:30:05;1021.3;;;7.4;62.6
57374;BME280;43964;53.890;25.340;2024-02-21T14:35:05;1021.3;;;7.4;62.6
57374;BME280;43964;53.890;25.340;2024-02-21T14:39:13;1021.3;;;7.4;62.6
57374;BME280;43964;53.890;25.340;2024-02-21T14:44:49;1021.2;;;7.3;62.6
57374;BME280;43964;53.890;25.340;2024-02-21T14:50:03;1021.1;;;7.1;63.1
57374;BME280;43964;53.890;25.340;2024-02-21T14:54:31;1021.1;;;7.1;63.1
57374;BME280;43964;53.890;25.340;2024-02-21T15:00:05;1021.1;;;6.9;63.6
57374;BME280;43964;53.890;25.340;2024-02-21T15:04:13;1021.1;;;6.9;63.6
57374;BME280;43964;53.890;25.340;2024-02-21T15:09:25;1021.1;;;6.9;63.6
57374;BME280;43964;53.890;25.340;2024-02-21T15:14:23;1021.1;;;6.8;63.8
57374;BME280;43964;53.890;25.340;2024-02-21T15:19:25;1021;;;6.7;63.9
57374;BME280;43964;53.890;25.340;2024-02-21T15:24:27;1021;;;6.7;64
57374;BME280;43964;53.890;25.340;2024-02-21T15:29:33;1021;;;6.7;64.1
57374;BME280;43964;53.890;25.340;2024-02-21T15:34:35;1020.9;;;6.7;64.3
57374;BME280;43964;53.890;25.340;2024-02-21T15:40:03;1020.8;;;6.7;64.6
57374;BME280;43964;53.890;25.340;2024-02-21T15:44:17;1020.8;;;6.7;64.6
57374;BME280;43964;53.890;25.340;2024-02-21T15:49:13;1020.7;;;6.6;64.8
57374;BME280;43964;53.890;25.340;2024-02-21T15:54:21;1020.7;;;6.6;65
57374;BME280;43964;53.890;25.340;2024-02-21T15:59:43;1020.7;;;6.6;65.1
57374;BME280;43964;53.890;25.340;2024-02-21T16:04:53;1020.6;;;6.6;65.2
57374;BME280;43964;53.890;25.340;2024-02-21T16:09:23;1020.6;;;6.6;65.1
57374;BME280;43964;53.890;25.340;2024-02-21T16:14:41;1020.5;;;6.6;65.2
57374;BME280;43964;53.890;25.340;2024-02-21T16:19:15;1020.4;;;6.5;65.3
57374;BME280;43964;53.890;25.340;2024-02-21T16:25:05;1020.3;;;6.5;65.4
57374;BME280;43964;53.890;25.340;2024-02-21T16:35:05;1020.3;;;6.3;65.8
57374;BME280;43964;53.890;25.340;2024-02-21T16:39:13;1020.3;;;6.3;65.8
57374;BME280;43964;53.890;25.340;2024-02-21T16:44:27;1020.2;;;6.3;65.9
57374;BME280;43964;53.890;25.340;2024-02-21T16:49:13;1020.2;;;6.3;66.1
57374;BME280;43964;53.890;25.340;2024-02-21T16:54:45;1020.1;;;6.3;66.4
57374;BME280;43964;53.890;25.340;2024-02-21T16:59:21;1020;;;6.3;66.7
57374;BME280;43964;53.890;25.340;2024-02-21T17:04:45;1020;;;6.3;66.8
57374;BME280;43964;53.890;25.340;2024-02-21T17:09:29;1020;;;6.3;67
57374;BME280;43964;53.890;25.340;2024-02-21T17:14:51;1020;;;6.3;66.7
57374;BME280;43964;53.890;25.340;2024-02-21T17:19:49;1019.9;;;6.3;66.8
57374;BME280;43964;53.890;25.340;2024-02-21T17:24:33;1019.9;;;6.2;67.1
57374;BME280;43964;53.890;25.340;2024-02-21T17:29:21;1019.9;;;6.2;67.3
57374;BME280;43964;53.890;25.340;2024-02-21T17:34:45;1019.8;;;6.2;67.5
57374;BME280;43964;53.890;25.340;2024-02-21T17:39:55;1019.7;;;6.2;67.6
57374;BME280;43964;53.890;25.340;2024-02-21T17:44:35;1019.6;;;6.2;67.6
57374;BME280;43964;53.890;25.340;2024-02-21T17:49:55;1019.5;;;6.2;67.6
57374;BME280;43964;53.890;25.340;2024-02-21T17:54:49;1019.5;;;6.2;67.6
57374;BME280;43964;53.890;25.340;2024-02-21T18:00:05;1019.3;;;6.2;67.7
57374;BME280;43964;53.890;25.340;2024-02-21T18:04:39;1019.3;;;6.2;67.7
57374;BME280;43964;53.890;25.340;2024-02-21T18:09:55;1019.3;;;6.2;67.7
57374;BME280;43964;53.890;25.340;2024-02-21T18:14:39;1019.3;;;6.2;67.7
57374;BME280;43964;53.890;25.340;2024-02-21T18:19:35;1019.2;;;6.1;68.2
57374;BME280;43964;53.890;25.340;2024-02-21T18:24:39;1019.2;;;6.1;68.4
57374;BME280;43964;53.890;25.340;2024-02-21T18:29:27;1019.2;;;6.1;68.6
57374;BME280;43964;53.890;25.340;2024-02-21T18:35:05;1019.1;;;6.1;68.8
57374;BME280;43964;53.890;25.340;2024-02-21T18:39:45;1019.1;;;6.1;68.8
57374;BME280;43964;53.890;25.340;2024-02-21T18:44:49;1019.1;;;6;68.7
57374;BME280;43964;53.890;25.340;2024-02-21T18:50:05;1019;;;6.2;68.7
57374;BME280;43964;53.890;25.340;2024-02-21T18:55:05;1018.9;;;6.3;68.6
57374;BME280;43964;53.890;25.340;2024-02-21T18:59:13;1018.9;;;6.3;68.6
57374;BME280;43964;53.890;25.340;2024-02-21T19:04:35;1018.7;;;6.2;68.9
57374;BME280;43964;53.890;25.340;2024-02-21T19:10:05;1018.7;;;6.3;69.3
57374;BME280;43964;53.890;25.340;2024-02-21T19:14:21;1018.7;;;6.3;69.3
57374;BME280;43964;53.890;25.340;2024-02-21T19:19:13;1018.6;;;6.4;68.8
57374;BME280;43964;53.890;25.340;2024-02-21T19:24:47;1018.5;;;6.5;69
57374;BME280;43964;53.890;25.340;2024-02-21T19:29:35;1018.4;;;6.5;69.1
57374;BME280;43964;53.890;25.340;2024-02-21T19:35:05;1018.3;;;6.6;69.2
57374;BME280;43964;53.890;25.340;2024-02-21T19:39:39;1018.3;;;6.6;69.2
57374;BME280;43964;53.890;25.340;2024-02-21T19:44:51;1018.3;;;6.6;69.2
57374;BME280;43964;53.890;25.340;2024-02-21T19:49:39;1018.2;;;6.6;69.2
57374;BME280;43964;53.890;25.340;2024-02-21T19:54:49;1018.2;;;6.6;69.2
57374;BME280;43964;53.890;25.340;2024-02-21T19:59:21;1018.2;;;6.6;69.2
57374;BME280;43964;53.890;25.340;2024-02-21T20:04:29;1018.1;;;6.7;69.2
57374;BME280;43964;53.890;25.340;2024-02-21T20:09:21;1018.1;;;6.7;69.2
57374;BME280;43964;53.890;25.340;2024-02-21T20:14:13;1018;;;6.7;69.2
57374;BME280;43964;53.890;25.340;2024-02-21T20:19:21;1018;;;6.6;69
57374;BME280;43964;53.890;25.340;2024-02-21T20:24:29;1017.9;;;6.4;69.5
57374;BME280;43964;53.890;25.340;2024-02-21T20:30:05;1017.8;;;6.5;69.9
57374;BME280;43964;53.890;25.340;2024-02-21T20:34:21;1017.8;;;6.5;69.9
57374;BME280;43964;53.890;25.340;2024-02-21T20:40:05;1017.6;;;6.5;69.6
57374;BME280;43964;53.890;25.340;2024-02-21T20:44:35;1017.6;;;6.5;69.6
57374;BME280;43964;53.890;25.340;2024-02-21T20:49:55;1017.6;;;6.5;69.8
57374;BME280;43964;53.890;25.340;2024-02-21T20:54:13;1017.6;;;6.4;69.9
57374;BME280;43964;53.890;25.340;2024-02-21T20:59:29;1017.6;;;6.4;70
57374;BME280;43964;53.890;25.340;2024-02-21T21:05:03;1017.5;;;6.5;70.2
57374;BME280;43964;53.890;25.340;2024-02-21T21:09:45;1017.5;;;6.5;70.2
57374;BME280;43964;53.890;25.340;2024-02-21T21:14:37;1017.4;;;6.5;69.9
57374;BME280;43964;53.890;25.340;2024-02-21T21:20:03;1017.3;;;6.4;70.4
57374;BME280;43964;53.890;25.340;2024-02-21T21:24:13;1017.3;;;6.4;70.4
57374;BME280;43964;53.890;25.340;2024-02-21T21:29:47;1017.3;;;6.4;70.3
57374;BME280;43964;53.890;25.340;2024-02-21T21:34:29;1017.2;;;6.5;70.5
57374;BME280;43964;53.890;25.340;2024-02-21T21:39:19;1017.2;;;6.6;70.4
57374;BME280;43964;53.890;25.340;2024-02-21T21:44:13;1017.1;;;6.7;70.5
57374;BME280;43964;53.890;25.340;2024-02-21T21:49:23;1017.2;;;6.7;70.7
57374;BME280;43964;53.890;25.340;2024-02-21T21:54:53;1017.1;;;6.8;70.6
57374;BME280;43964;53.890;25.340;2024-02-21T21:59:13;1017.1;;;6.8;70.7
57374;BME280;43964;53.890;25.340;2024-02-21T22:05:03;1017;;;6.8;70.6
57374;BME280;43964;53.890;25.340;2024-02-21T22:09:13;1017;;;6.8;70.6
57374;BME280;43964;53.890;25.340;2024-02-21T22:15:03;1016.9;;;6.7;70.8
57374;BME280;43964;53.890;25.340;2024-02-21T22:19:39;1016.9;;;6.7;70.8
57374;BME280;43964;53.890;25.340;2024-02-21T22:24:53;1016.9;;;6.7;70.9
57374;BME280;43964;53.890;25.340;2024-02-21T22:29:13;1016.9;;;6.8;71
57374;BME280;43964;53.890;25.340;2024-02-21T22:34:45;1016.8;;;6.9;70.9
57374;BME280;43964;53.890;25.340;2024-02-21T22:40:06;1016.9;;;7;71
57374;BME280;43964;53.890;25.340;2024-02-21T22:45:05;1016.8;;;7;71
57374;BME280;43964;53.890;25.340;2024-02-21T22:49:21;1016.8;;;7;71
57374;BME280;43964;53.890;25.340;2024-02-21T22:55:05;1016.8;;;7.1;70.9
57374;BME280;43964;53.890;25.340;2024-02-21T23:00:05;1016.7;;;7.1;70.9
57374;BME280;43964;53.890;25.340;2024-02-21T23:04:51;1016.7;;;7.1;70.9
57374;BME280;43964;53.890;25.340;2024-02-21T23:10:07;1016.7;;;7;70.9
57374;BME280;43964;53.890;25.340;2024-02-21T23:14:21;1016.7;;;7;70.9
57374;BME280;43964;53.890;25.340;2024-02-21T23:19:13;1016.7;;;7;70.9
57374;BME280;43964;53.890;25.340;2024-02-21T23:24:21;1016.6;;;7;71
57374;BME280;43964;53.890;25.340;2024-02-21T23:29:35;1016.6;;;7;71.2
57374;BME280;43964;53.890;25.340;2024-02-21T23:34:13;1016.5;;;7;71.2
57374;BME280;43964;53.890;25.340;2024-02-21T23:39:45;1016.4;;;7;71.2
57374;BME280;43964;53.890;25.340;2024-02-21T23:44:31;1016.4;;;7;71.4
57374;BME280;43964;53.890;25.340;2024-02-21T23:50:07;1016.3;;;7;71.4
57374;BME280;43964;53.890;25.340;2024-02-21T23:54:51;1016.3;;;7;71.4
57374;BME280;43964;53.890;25.340;2024-02-21T23:59:21;1016.3;;;7;71.4
